Domov               UVHVVR             MKGP            O straneh              
ZDRAVSTVENO VARSTVO RASTLIN
  MREŽA AGROMET. POSTAJ
 ► PROGNOSTIČNA OBVESTILA
AGROMETEOROLOŠKI PODATKI -
ARSO
OBVLADOVANJE TVEGANJ ZARADI
NEUGODNIH VREMENSKIH RAZMER
  ► NARAVNE NESREČE
  ► SUŠA/MOČA
  ► NAMAKANJE
  ► ŽLED (gozdarstvo)
KARTOGRAFSKI PRIKAZI
SPLETNE POVEZAVE
PROJEKTI IN PUBLIKACIJE

AGROMETEOROLOŠKA MREŽA: VREMENSKE POSTAJE IN FENOLOŠKA OPAZOVANJA

Pregled podatkov za lokacijo Veržej, meteorološka postaja 37883

Pregled senzorjev na lokaciji

ID Ime Zadnja
vrednost
Datum
zadnje
spremembe
Tip
senzorja
3787 Padavine (mm) 0 mm 25.2.2018 11:30 Rain-O-Matic
3789 Relativna vlaga 2 m (% RH) 50,77 % RH 25.2.2018 11:30 50YA
3793 Temperatura 2 m (°C) -5,64 °C 25.2.2018 11:30 50YA

Pregled podatkov zadnjih 24 ur

Zap.
št.
Datum in čas Veržej
Padavine Relativna
vlaga
2
m
Temperatura
2
m
1 25.2.2018 12:30
2 25.2.2018 12:00
3 25.2.2018 11:30 0 50,8 -5,6
4 25.2.2018 11:00 0 52,7 -5,9
5 25.2.2018 10:30 0 55,5 -6,5
6 25.2.2018 10:00 0 57,2 -7,1
7 25.2.2018 09:30 0 58,1 -7,5
8 25.2.2018 09:00 0 62,1 -8,3
9 25.2.2018 08:30 0 63,9 -8,8
10 25.2.2018 08:00 0 65,8 -9,2
11 25.2.2018 07:30 0 67 -9,8
12 25.2.2018 07:00 0 66,8 -9,9
13 25.2.2018 06:30 0 67,1 -9,9
14 25.2.2018 06:00 0 67,2 -9,7
15 25.2.2018 05:30 0 66,2 -9,4
16 25.2.2018 05:00 0 64,6 -8,8
17 25.2.2018 04:30 0 63,9 -8,2
18 25.2.2018 04:00 0 64,3 -8
19 25.2.2018 03:30 0 64,9 -7,6
20 25.2.2018 03:00 0 65 -7,3
21 25.2.2018 02:30 0 66,7 -7,1
22 25.2.2018 02:00 0 66,7 -7
23 25.2.2018 01:30 0 66 -6,6
24 25.2.2018 01:00 0 66 -6,5
25 25.2.2018 00:30 0 64,9 -6,3
26 25.2.2018 00:00 0 62 -6
27 24.2.2018 23:30 0 58,9 -5,5
28 24.2.2018 23:00 0 55,7 -5
29 24.2.2018 22:30 0 55,6 -4,7
30 24.2.2018 22:00 0 54,9 -4,4
31 24.2.2018 21:30 0 54,4 -4,1
32 24.2.2018 21:00 0 57,3 -4
33 24.2.2018 20:30 0 63,8 -3,5
34 24.2.2018 20:00 0 66,3 -3,3
35 24.2.2018 19:30 0 64,2 -3,1
36 24.2.2018 19:00 0 60,4 -3,2
37 24.2.2018 18:30 0 60,5 -3,5
38 24.2.2018 18:00 0 59,9 -3,1
39 24.2.2018 17:30 0 57,2 -2,5
40 24.2.2018 17:00 0 56,6 -2
41 24.2.2018 16:30 0 55,3 -1,7
42 24.2.2018 16:00 0 53,5 -0,7
43 24.2.2018 15:30 0,4 49,8 0
44 24.2.2018 15:00 0 50,9 0,6
45 24.2.2018 14:30 0 62,5 -0,7
46 24.2.2018 14:00 0 63,5 -0,6
47 24.2.2018 13:30 0 64 -0,8
48 24.2.2018 13:00 0 63,9 -0,8
© 2011 Ministrstvo za kmetijstvo, gozdarstvo in prehrano. Vse pravice pridržane.